createdAt,value
2017-09-08T00:01:53.412Z,61.50
2017-09-08T00:04:21.000Z,61.40
2017-09-08T00:06:49.245Z,61.20
2017-09-08T00:09:16.733Z,61.20
2017-09-08T00:11:44.987Z,61.50
2017-09-08T00:14:13.229Z,61.60
2017-09-08T00:16:40.736Z,61.60
2017-09-08T00:19:08.993Z,61.80
2017-09-08T00:21:36.505Z,61.70
2017-09-08T00:24:03.996Z,61.70
2017-09-08T00:26:31.477Z,61.90
2017-09-08T00:28:58.977Z,61.80
2017-09-08T00:31:26.457Z,61.70
2017-09-08T00:33:53.932Z,61.90
2017-09-08T00:36:21.420Z,62.00
2017-09-08T00:38:49.664Z,62.70
2017-09-08T00:41:17.159Z,62.00
2017-09-08T00:43:45.407Z,62.20
2017-09-08T00:46:12.887Z,62.10
2017-09-08T00:48:40.376Z,62.10
2017-09-08T00:51:07.863Z,62.10
2017-09-08T00:53:35.346Z,62.10
2017-09-08T00:56:02.900Z,62.00
2017-09-08T00:58:30.388Z,62.10
2017-09-08T01:00:58.631Z,62.20
2017-09-08T01:03:26.158Z,62.20
2017-09-08T01:05:53.665Z,62.20
2017-09-08T01:08:21.148Z,62.10
2017-09-08T01:10:49.407Z,62.40
2017-09-08T01:13:16.880Z,62.40
2017-09-08T01:15:45.123Z,62.40
2017-09-08T01:18:12.616Z,62.40
2017-09-08T01:20:40.856Z,62.30
2017-09-08T01:23:08.344Z,62.30
2017-09-08T01:25:35.843Z,62.20
2017-09-08T01:28:03.360Z,62.30
2017-09-08T01:30:31.605Z,62.20
2017-09-08T01:32:59.123Z,62.20
2017-09-08T01:35:26.620Z,62.10
2017-09-08T01:37:54.107Z,62.20
2017-09-08T01:40:21.610Z,62.20
2017-09-08T01:42:49.098Z,62.20
2017-09-08T01:45:16.590Z,62.30
2017-09-08T01:47:44.882Z,62.40
2017-09-08T01:50:12.361Z,62.40
2017-09-08T01:52:39.851Z,62.40
2017-09-08T01:55:07.352Z,62.70
2017-09-08T01:57:34.841Z,62.60
2017-09-08T02:00:02.337Z,62.70
2017-09-08T02:02:29.855Z,62.80
2017-09-08T02:04:57.336Z,62.70
2017-09-08T02:07:24.819Z,62.80
2017-09-08T02:09:52.345Z,62.80
2017-09-08T02:12:19.835Z,62.90
2017-09-08T02:14:47.456Z,62.90
2017-09-08T02:17:14.963Z,63.00
2017-09-08T02:19:42.462Z,63.00
2017-09-08T02:22:12.894Z,63.50
2017-09-08T02:24:40.397Z,63.00
2017-09-08T02:27:07.877Z,62.90
2017-09-08T02:29:36.152Z,63.10
2017-09-08T02:32:04.444Z,63.20
2017-09-08T02:34:31.932Z,63.10
2017-09-08T02:36:59.406Z,63.30
2017-09-08T02:39:26.915Z,63.30
2017-09-08T02:41:54.416Z,63.40
2017-09-08T02:44:21.910Z,63.40
2017-09-08T02:46:49.479Z,63.30
2017-09-08T02:49:17.728Z,63.70
2017-09-08T02:51:45.219Z,63.70
2017-09-08T02:54:13.493Z,63.80
2017-09-08T02:56:41.733Z,63.90
2017-09-08T02:59:09.215Z,63.90
2017-09-08T03:01:37.483Z,64.90
2017-09-08T03:04:04.963Z,64.20
2017-09-08T03:06:32.434Z,64.10
2017-09-08T03:08:59.980Z,64.20
2017-09-08T03:11:28.227Z,64.20
2017-09-08T03:13:55.707Z,64.10
2017-09-08T03:16:23.973Z,64.20
2017-09-08T03:18:51.451Z,64.20
2017-09-08T03:21:19.697Z,64.20
2017-09-08T03:23:47.191Z,64.10
2017-09-08T03:26:14.663Z,64.10
2017-09-08T03:28:42.167Z,63.90
2017-09-08T03:31:09.676Z,64.00
2017-09-08T03:33:37.154Z,64.00
2017-09-08T03:36:04.632Z,63.90
2017-09-08T03:38:32.130Z,63.80
2017-09-08T03:41:00.384Z,63.80
2017-09-08T03:43:28.647Z,63.80
2017-09-08T03:45:56.152Z,63.80
2017-09-08T03:48:24.412Z,63.80
2017-09-08T03:50:52.659Z,63.90
2017-09-08T03:53:20.195Z,63.70
2017-09-08T03:55:47.675Z,63.60
2017-09-08T03:58:15.151Z,63.60
2017-09-08T04:00:42.664Z,63.30
2017-09-08T04:03:10.161Z,63.20
2017-09-08T04:05:37.663Z,63.10
2017-09-08T04:08:05.188Z,63.20
2017-09-08T04:10:32.680Z,63.10
2017-09-08T04:13:00.168Z,63.20
2017-09-08T04:15:27.690Z,62.90
2017-09-08T04:17:55.943Z,62.80
2017-09-08T08:05:12.298Z,60.80
2017-09-08T08:07:40.543Z,60.40
2017-09-08T08:10:08.019Z,60.40
2017-09-08T08:12:35.524Z,60.00
2017-09-08T08:15:03.005Z,60.10
2017-09-08T08:17:30.483Z,60.00
2017-09-08T08:19:57.984Z,59.60
2017-09-08T08:22:26.239Z,59.50
2017-09-08T08:24:53.720Z,59.50
2017-09-08T08:27:21.990Z,59.50
2017-09-08T08:29:50.230Z,59.40
2017-09-08T08:32:17.708Z,59.40
2017-09-08T08:34:45.212Z,59.40
2017-09-08T08:37:12.687Z,59.60
2017-09-08T08:39:40.172Z,59.50
2017-09-08T08:42:07.685Z,59.50
2017-09-08T08:44:35.216Z,59.50
2017-09-08T08:47:03.463Z,59.50
2017-09-08T08:49:30.959Z,59.50
2017-09-08T08:51:58.437Z,59.50
2017-09-08T08:54:25.924Z,59.50
2017-09-08T08:56:53.415Z,59.40
2017-09-08T08:59:20.892Z,59.50
2017-09-08T09:01:49.140Z,59.50
2017-09-08T09:04:16.643Z,59.50
2017-09-08T09:06:44.210Z,59.80
2017-09-08T09:09:11.695Z,59.40
2017-09-08T09:11:39.205Z,59.40
2017-09-08T09:14:06.683Z,59.40
2017-09-08T09:16:34.153Z,59.30
2017-09-08T09:19:01.661Z,59.60
2017-09-08T09:21:29.134Z,59.40
2017-09-08T09:23:57.395Z,59.30
2017-09-08T09:26:25.653Z,59.70
2017-09-08T09:28:53.918Z,59.10
2017-09-08T09:31:21.386Z,59.00
2017-09-08T09:33:48.879Z,58.90
2017-09-08T09:36:17.135Z,58.90
2017-09-08T09:38:45.397Z,58.90
2017-09-08T09:41:12.905Z,58.80
2017-09-08T09:43:40.379Z,58.80
2017-09-08T09:46:07.859Z,58.90
2017-09-08T09:48:35.462Z,58.80
2017-09-08T09:51:03.724Z,58.70
2017-09-08T09:53:31.204Z,58.70
2017-09-08T09:55:58.744Z,58.60
2017-09-08T09:58:26.244Z,58.50
2017-09-08T10:00:53.721Z,59.10
2017-09-08T10:03:21.219Z,58.30
2017-09-08T10:05:49.475Z,58.30
2017-09-08T10:08:16.951Z,58.30
2017-09-08T10:10:45.233Z,58.00
2017-09-08T10:13:13.472Z,58.50
2017-09-08T10:15:40.951Z,58.20
2017-09-08T10:18:08.472Z,58.30
2017-09-08T10:20:35.968Z,58.50
2017-09-08T10:23:03.449Z,58.40
2017-09-08T10:25:31.732Z,58.50
2017-09-08T10:27:59.976Z,58.40
2017-09-08T10:30:27.452Z,58.40
2017-09-08T10:32:55.716Z,58.50
2017-09-08T10:35:23.975Z,58.20
2017-09-08T10:37:51.464Z,58.20
2017-09-08T10:40:20.293Z,58.90
2017-09-08T10:42:47.792Z,58.70
2017-09-08T10:45:15.283Z,58.20
2017-09-08T10:47:43.551Z,58.40
2017-09-08T10:50:11.798Z,58.70
2017-09-08T10:52:39.283Z,58.70
2017-09-08T10:55:07.570Z,58.60
2017-09-08T10:57:35.819Z,58.50
2017-09-08T11:00:03.299Z,58.50
2017-09-08T11:02:31.607Z,58.90
2017-09-08T11:04:59.091Z,58.80
2017-09-08T11:07:26.573Z,59.00
2017-09-08T11:09:54.069Z,59.10
2017-09-08T11:12:21.563Z,59.30
2017-09-08T11:14:49.048Z,59.40
2017-09-08T11:17:16.642Z,59.60
2017-09-08T11:19:44.132Z,60.30
2017-09-08T11:22:11.603Z,59.80
2017-09-08T11:24:39.243Z,60.10
2017-09-08T11:27:06.728Z,60.60
2017-09-08T11:29:34.218Z,61.00
2017-09-08T11:32:02.497Z,61.80
2017-09-08T11:34:36.498Z,62.50
2017-09-08T11:37:09.793Z,62.50
2017-09-08T11:39:37.272Z,63.30
2017-09-08T11:42:04.766Z,64.60
2017-09-08T11:44:32.271Z,65.10
2017-09-08T11:46:59.750Z,65.60
2017-09-08T11:49:27.235Z,67.10
2017-09-08T11:51:54.738Z,67.30
2017-09-08T11:54:22.228Z,68.10
2017-09-08T11:56:49.706Z,68.50
2017-09-08T11:59:17.212Z,67.50
2017-09-08T12:01:45.464Z,67.30
2017-09-08T12:04:12.963Z,67.40
2017-09-08T12:06:41.242Z,68.40
2017-09-08T12:09:09.486Z,68.50
2017-09-08T12:11:36.969Z,67.90
2017-09-08T12:14:04.468Z,68.30
2017-09-08T12:16:31.937Z,68.60
2017-09-08T12:18:59.507Z,68.50
2017-09-08T12:21:27.005Z,69.80
2017-09-08T12:23:55.253Z,69.40
2017-09-08T12:26:22.766Z,69.70
2017-09-08T12:28:50.271Z,70.10
2017-09-08T12:31:17.755Z,69.70
2017-09-08T12:33:45.240Z,69.80
2017-09-08T12:36:12.757Z,70.20
2017-09-08T12:38:40.243Z,70.20
2017-09-08T12:41:07.737Z,72.70
2017-09-08T12:43:35.240Z,71.90
2017-09-08T12:46:02.716Z,72.60
2017-09-08T12:48:31.009Z,73.70
2017-09-08T12:50:58.560Z,73.70
2017-09-08T12:53:26.058Z,72.00
2017-09-08T12:55:53.540Z,73.10
2017-09-08T12:58:21.136Z,74.80
2017-09-08T13:00:49.385Z,74.10
2017-09-08T13:03:17.648Z,72.60
2017-09-08T13:05:45.243Z,72.60
2017-09-08T13:08:13.512Z,73.30
2017-09-08T13:10:41.830Z,75.50
2017-09-08T13:13:09.357Z,74.90
2017-09-08T13:15:37.654Z,75.20
2017-09-08T13:18:05.149Z,75.10
2017-09-08T13:20:32.687Z,75.90
2017-09-08T13:23:00.180Z,75.90
2017-09-08T13:25:27.661Z,76.90
2017-09-08T13:27:55.943Z,76.60
2017-09-08T13:30:24.240Z,75.80
2017-09-08T13:32:51.736Z,75.60
2017-09-08T13:35:19.260Z,76.10
2017-09-08T13:37:46.773Z,76.50
2017-09-08T13:40:14.248Z,76.40
2017-09-08T13:42:42.526Z,77.00
2017-09-08T13:45:10.794Z,79.10
2017-09-08T13:47:38.284Z,78.40
2017-09-08T13:50:05.788Z,76.10
2017-09-08T13:52:33.271Z,75.80
2017-09-08T13:55:00.760Z,75.20
2017-09-08T13:57:28.306Z,74.90
2017-09-08T13:59:56.576Z,75.70
2017-09-08T14:02:24.833Z,74.80
2017-09-08T14:04:52.335Z,74.70
2017-09-08T14:07:19.811Z,74.30
2017-09-08T14:09:47.357Z,74.40
2017-09-08T14:12:14.847Z,74.70
2017-09-08T14:14:42.560Z,74.00
2017-09-08T14:17:10.805Z,73.20
2017-09-08T14:19:38.340Z,73.10
2017-09-08T14:22:05.827Z,71.90
2017-09-08T14:24:33.313Z,72.80
2017-09-08T14:27:01.607Z,72.30
2017-09-08T14:29:29.096Z,72.20
2017-09-08T14:31:56.600Z,72.50
2017-09-08T14:34:24.897Z,73.60
2017-09-08T14:36:53.134Z,72.80
2017-09-08T14:39:20.621Z,72.80
2017-09-08T14:41:48.139Z,72.90
2017-09-08T14:44:15.632Z,72.20
2017-09-08T14:46:43.885Z,72.00
2017-09-08T14:49:11.480Z,71.80
2017-09-08T14:51:39.724Z,71.40
2017-09-08T14:54:07.212Z,71.20
2017-09-08T14:56:35.472Z,72.20
2017-09-08T14:59:03.722Z,71.10
2017-09-08T15:01:31.213Z,71.10
2017-09-08T15:03:59.497Z,70.10
2017-09-08T15:06:27.760Z,70.70
2017-09-08T15:08:56.024Z,71.00
2017-09-08T15:11:23.564Z,71.00
2017-09-08T15:13:51.051Z,70.60
2017-09-08T15:16:18.623Z,70.70
2017-09-08T15:18:46.931Z,70.40
2017-09-08T15:21:14.751Z,70.30
2017-09-08T15:23:42.238Z,70.50
2017-09-08T15:26:09.744Z,69.80
2017-09-08T15:28:37.224Z,70.10
2017-09-08T15:31:05.476Z,69.60
2017-09-08T15:33:33.007Z,69.60
2017-09-08T15:36:00.488Z,69.70
2017-09-08T15:38:27.968Z,69.20
2017-09-08T15:40:55.475Z,69.50
2017-09-08T15:43:22.960Z,68.80
2017-09-08T15:45:50.445Z,68.60
2017-09-08T15:48:17.957Z,68.70
2017-09-08T15:50:45.448Z,68.60
2017-09-08T15:53:12.948Z,68.80
2017-09-08T15:55:41.227Z,68.80
2017-09-08T15:58:08.717Z,68.70
2017-09-08T16:00:36.189Z,68.30
2017-09-08T16:03:03.681Z,69.20
2017-09-08T16:05:31.163Z,69.80
2017-09-08T16:07:59.400Z,71.80
2017-09-08T16:10:27.024Z,71.70
2017-09-08T16:12:54.590Z,72.50
2017-09-08T16:15:22.076Z,72.90
2017-09-08T16:17:49.615Z,73.90
2017-09-08T16:20:17.083Z,74.20
2017-09-08T16:22:44.560Z,74.70
2017-09-08T16:25:12.058Z,74.90
2017-09-08T16:27:40.353Z,76.70
2017-09-08T16:30:07.827Z,76.60
2017-09-08T16:32:35.328Z,76.60
2017-09-08T16:35:02.798Z,77.70
2017-09-08T16:37:31.055Z,78.10
2017-09-08T16:39:58.551Z,77.40
2017-09-08T16:42:26.046Z,78.10
2017-09-08T16:44:53.522Z,78.80
2017-09-08T16:47:21.046Z,78.60
2017-09-08T16:49:48.520Z,78.20
2017-09-08T16:52:16.032Z,78.60
2017-09-08T16:54:44.308Z,77.60
2017-09-08T16:57:11.787Z,77.60
2017-09-08T16:59:39.288Z,78.10
2017-09-08T17:02:06.794Z,78.00
2017-09-08T17:04:34.396Z,79.30
2017-09-08T17:07:01.937Z,77.80
2017-09-08T17:09:29.436Z,78.50
2017-09-08T17:11:56.911Z,78.40
2017-09-08T17:14:24.391Z,78.80
2017-09-08T17:16:51.888Z,78.20
2017-09-08T17:19:19.365Z,77.60
2017-09-08T17:21:46.848Z,76.30
2017-09-08T17:24:15.101Z,76.00
2017-09-08T17:26:43.335Z,75.60
2017-09-08T17:29:10.812Z,75.60
2017-09-08T17:31:38.396Z,75.90
2017-09-08T17:34:05.868Z,75.70
2017-09-08T17:36:34.127Z,76.00
2017-09-08T17:39:01.632Z,75.80
2017-09-08T17:41:29.101Z,76.40
2017-09-08T17:43:56.571Z,77.00
2017-09-08T17:46:24.088Z,77.30
2017-09-08T17:48:52.319Z,77.80
2017-09-08T17:51:19.795Z,77.70
2017-09-08T17:53:47.297Z,77.50
2017-09-08T17:56:14.783Z,78.10
2017-09-08T17:58:42.264Z,77.70
2017-09-08T18:01:09.889Z,78.40
2017-09-08T18:03:37.372Z,78.90
2017-09-08T18:06:04.875Z,79.20
2017-09-08T18:08:33.145Z,80.20
2017-09-08T18:11:01.389Z,80.40
2017-09-08T18:13:28.871Z,80.40
2017-09-08T18:15:57.157Z,80.80
2017-09-08T18:18:25.391Z,81.30
2017-09-08T18:20:52.864Z,81.30
2017-09-08T18:23:20.360Z,81.30
2017-09-08T18:25:48.599Z,81.80
2017-09-08T18:28:16.076Z,81.80
2017-09-08T18:30:43.567Z,81.50
2017-09-08T18:33:11.040Z,81.50
2017-09-08T18:35:38.515Z,82.00
2017-09-08T18:38:06.055Z,83.40
2017-09-08T18:40:33.539Z,82.20
2017-09-08T18:43:01.027Z,81.40
2017-09-08T18:45:29.295Z,82.20
2017-09-08T18:47:56.771Z,81.50
2017-09-08T18:50:25.015Z,81.90
2017-09-08T18:52:52.520Z,81.90
2017-09-08T18:55:20.764Z,81.00
2017-09-08T18:57:49.004Z,81.70
2017-09-08T19:00:16.520Z,81.80
2017-09-08T19:02:44.776Z,81.10
2017-09-08T19:05:12.252Z,81.10
2017-09-08T19:07:40.603Z,81.40
2017-09-08T19:10:08.106Z,81.20
2017-09-08T19:12:35.622Z,81.50
2017-09-08T19:15:03.136Z,81.80
2017-09-08T19:17:30.620Z,82.20
2017-09-08T19:19:58.103Z,82.00
2017-09-08T19:22:25.613Z,82.20
2017-09-08T19:24:53.087Z,82.60
2017-09-08T19:27:20.568Z,83.00
2017-09-08T19:29:48.080Z,82.40
2017-09-08T19:32:15.561Z,82.60
2017-09-08T19:34:43.058Z,83.50
2017-09-08T19:37:11.344Z,83.30
2017-09-08T19:39:39.589Z,83.70
2017-09-08T19:42:07.063Z,83.60
2017-09-08T19:44:34.575Z,83.30
2017-09-08T19:47:02.143Z,83.70
2017-09-08T19:49:29.620Z,83.30
2017-09-08T19:51:57.132Z,83.50
2017-09-08T19:54:24.638Z,83.40
2017-09-08T19:56:52.113Z,83.70
2017-09-08T19:59:19.615Z,84.10
2017-09-08T20:01:47.099Z,84.00
2017-09-08T20:04:14.575Z,84.00
2017-09-08T20:06:42.080Z,84.30
2017-09-08T20:09:10.337Z,84.90
2017-09-08T20:11:37.806Z,84.80
2017-09-08T20:14:05.307Z,85.40
2017-09-08T20:16:32.828Z,84.90
2017-09-08T20:19:01.105Z,85.00
2017-09-08T20:21:29.409Z,85.00
2017-09-08T20:23:56.922Z,84.80
2017-09-08T20:26:24.391Z,84.60
2017-09-08T20:28:52.662Z,84.70
2017-09-08T20:31:20.195Z,84.50
2017-09-08T20:33:47.689Z,85.00
2017-09-08T20:36:15.969Z,85.70
2017-09-08T20:38:44.212Z,85.50
2017-09-08T20:41:11.677Z,85.50
2017-09-08T20:43:39.204Z,85.40
2017-09-08T20:46:06.683Z,85.50
2017-09-08T20:48:34.158Z,85.40
2017-09-08T20:51:02.426Z,86.00
2017-09-08T20:53:29.915Z,86.00
2017-09-08T20:55:58.170Z,86.70
2017-09-08T20:58:25.700Z,86.70
2017-09-08T21:00:53.207Z,87.20
2017-09-08T21:03:21.443Z,89.90
2017-09-08T21:05:48.936Z,89.90
2017-09-08T21:08:17.196Z,90.00
2017-09-08T21:10:44.672Z,89.30
2017-09-08T21:13:12.944Z,89.90
2017-09-08T21:15:41.193Z,90.20
2017-09-08T21:18:08.667Z,89.90
2017-09-08T21:20:36.164Z,89.40
2017-09-08T21:23:03.633Z,89.40
2017-09-08T21:25:31.120Z,89.40
2017-09-08T21:27:58.616Z,89.10
2017-09-08T21:30:26.866Z,88.60
2017-09-08T21:32:54.333Z,88.60
2017-09-08T21:35:22.595Z,88.30
2017-09-08T21:37:50.076Z,88.30
2017-09-08T21:40:17.547Z,88.70
2017-09-08T21:42:45.812Z,87.40
2017-09-08T21:45:14.047Z,87.50
2017-09-08T21:47:41.527Z,86.80
2017-09-08T21:50:09.024Z,87.20
2017-09-08T21:52:36.521Z,86.80
2017-09-08T21:55:04.066Z,86.70
2017-09-08T21:57:31.573Z,87.40
2017-09-08T21:59:59.047Z,87.70
2017-09-08T22:02:27.287Z,86.30
2017-09-08T22:04:54.799Z,86.30
2017-09-08T22:07:22.267Z,86.40
2017-09-08T22:09:49.739Z,86.60
2017-09-08T22:12:17.244Z,86.10
2017-09-08T22:14:44.723Z,86.50
2017-09-08T22:17:12.965Z,86.30
2017-09-08T22:19:40.459Z,86.30
2017-09-08T22:22:08.704Z,86.30
2017-09-08T22:24:36.184Z,86.30
2017-09-08T22:27:04.439Z,87.00
2017-09-08T22:29:31.915Z,86.90
2017-09-08T22:32:00.713Z,87.10
2017-09-08T22:34:28.212Z,86.70
2017-09-08T22:36:55.685Z,86.60
2017-09-08T22:39:23.175Z,86.90
2017-09-08T22:41:50.676Z,87.50
2017-09-08T22:44:18.143Z,88.10
2017-09-08T22:46:45.621Z,88.60
2017-09-08T22:49:13.132Z,88.90
2017-09-08T22:51:41.367Z,89.10
2017-09-08T22:54:08.840Z,89.00
2017-09-08T22:56:36.339Z,89.00
2017-09-08T22:59:03.823Z,89.20
2017-09-08T23:01:31.301Z,89.70
2017-09-08T23:03:58.790Z,89.20
2017-09-08T23:06:27.047Z,89.10
2017-09-08T23:08:54.548Z,89.10
2017-09-08T23:11:22.057Z,89.10
2017-09-08T23:13:50.304Z,89.20
2017-09-08T23:16:17.783Z,89.20
2017-09-08T23:18:45.283Z,89.30
2017-09-08T23:21:12.763Z,89.10
2017-09-08T23:23:40.235Z,89.20
2017-09-08T23:26:07.779Z,89.30
2017-09-08T23:28:35.271Z,89.50
2017-09-08T23:31:02.742Z,89.20
2017-09-08T23:33:30.241Z,89.60
2017-09-08T23:35:57.731Z,89.90
2017-09-08T23:38:25.211Z,89.50
2017-09-08T23:40:52.707Z,89.30
2017-09-08T23:43:20.983Z,88.50
2017-09-08T23:45:49.218Z,88.40
2017-09-08T23:48:16.770Z,88.30
2017-09-08T23:50:44.244Z,88.40
2017-09-08T23:53:11.719Z,88.60
2017-09-08T23:55:39.995Z,85.60
2017-09-08T23:58:07.480Z,85.60
